Carbondale, IL (62901)

4:13 AM CST on February 06, 2016 (GMT -0600)
Public Works | | Change Station
CLOSE
Current Station
Personal Weather Station
Location: Carbondale, IL
Elevation: 400 ft
Nearby Weather Stations

Elev 400 ft 37.73 °N, 89.22 °W | Updated 8 minutes ago

Clear
Clear
27.4 °F
Feels Like 27 °F
N
0.0
Wind Variable Wind from East
Gusts 0.0 mph

Today
High -- | Low -- °F
--% Chance of Precip.
Yesterday
High -- | Low -- °F
Precip. -- in
Pressure 30.33 in
Visibility 10.0 miles
Clouds Clear
Windchill 27 °F
Dew Point 24 °F
Humidity 86%
Rainfall 0.00 in
Snow Depth Not available.
6:56 AM 5:25 PM
Waning Crescent, 6% visible
METAR KMDH 060952Z AUTO 00000KT 10SM CLR M04/M06 A3032 RMK AO2 SLP271 T10441061
Pressure 30.33 in
Visibility 10.0 miles
Clouds Clear
Windchill 27 °F
Dew Point 24 °F
Humidity 86%
Rainfall 0.00 in
Snow Depth Not available.
6:56 AM 5:25 PM
Waning Crescent, 6% visible
METAR KMDH 060952Z AUTO 00000KT 10SM CLR M04/M06 A3032 RMK AO2 SLP271 T10441061

10-Day Weather Forecast

Almanac

Astronomy

Feb. 06, 2016 Rise Set
Actual Time
Civil Twilight
Nautical Twilight
Astronomical Twilight
Moon
Length of Visible Light
Length of Day
Tomorrow will be .
, % of the Moon is Illuminated

Today's Extremes

State Highs State Lows

Community

WunderPhotos

Upload Photos

1,890,933 photos uploaded!

WunderBlog® & News

Nearby

Air Quality

  Air Quality AQ Index Pollutant
Not available.

Snow Depth

Station Depth Elevation

Earthquake Activity

City Distance Mag. Time & Date
Minimum magnitude displayed is 2.5.

Coastal Water Temperatures

Place Temperature

Stations

Nearby Weather Stations

Station Location Temp. Windchill Dew Point Humidity Wind Precip. Elev Updated Type
                   

Watches & Warnings

There are currently no watches in effect.